Time;durP1;ratioP1;P1;durP2;ratioP2;P2;SDS_P1;SDS_P2;PMS_P1;PMS_P2;Temp;Humidity;BMP_temperature;BMP_pressure;BME280_temperature;BME280_humidity;BME280_pressure;Samples;Min_cycle;Max_cycle;Signal;HPM_P1;HPM_P2
2021/04/30 00:00:40;;;;;;;53.00;32.38;;;7.60;94.10;;;;;;4987105;28;20042;-50
2021/04/30 00:03:07;;;;;;;61.78;33.90;;;7.60;94.20;;;;;;4996570;28;20042;-51
2021/04/30 00:05:34;;;;;;;58.03;34.20;;;7.60;94.30;;;;;;5009038;28;20054;-49
2021/04/30 00:08:01;;;;;;;65.25;34.58;;;7.60;94.30;;;;;;4993288;28;20082;-53
2021/04/30 00:10:31;;;;;;;64.32;33.88;;;7.70;94.30;;;;;;5032272;28;20049;-48
2021/04/30 00:13:00;;;;;;;63.08;34.58;;;7.70;94.40;;;;;;5002526;28;20115;-50
2021/04/30 00:15:26;;;;;;;58.30;34.80;;;7.70;94.40;;;;;;4996504;28;20049;-52
2021/04/30 00:17:52;;;;;;;56.85;36.65;;;7.70;94.40;;;;;;5017519;28;20050;-50
2021/04/30 00:20:18;;;;;;;58.80;35.67;;;7.70;94.40;;;;;;4993265;28;20045;-50
2021/04/30 00:22:44;;;;;;;55.58;33.90;;;7.70;94.40;;;;;;4997696;28;20337;-49
2021/04/30 00:25:10;;;;;;;61.50;35.17;;;7.70;94.40;;;;;;4996394;28;20101;-53
2021/04/30 00:27:37;;;;;;;54.95;34.85;;;7.80;94.50;;;;;;5046931;28;20044;-51
2021/04/30 00:30:05;;;;;;;58.05;33.50;;;7.80;94.40;;;;;;4992101;28;20059;-49
2021/04/30 00:32:31;;;;;;;56.58;34.70;;;7.80;94.50;;;;;;4991878;28;20042;-50
2021/04/30 00:34:59;;;;;;;56.70;34.97;;;7.80;94.40;;;;;;4992772;28;20038;-49
2021/04/30 00:37:25;;;;;;;61.90;34.42;;;7.80;94.40;;;;;;4990769;28;20095;-49
2021/04/30 00:39:50;;;;;;;56.55;34.30;;;7.80;94.40;;;;;;4987255;28;20039;-50
2021/04/30 00:42:16;;;;;;;55.47;34.90;;;7.80;94.40;;;;;;4994371;28;20121;-50
2021/04/30 00:44:44;;;;;;;55.38;34.42;;;7.80;94.40;;;;;;4993786;28;20046;-50
2021/04/30 00:47:26;;;;;;;54.70;33.22;;;7.70;94.50;;;;;;4992816;28;20039;-49
2021/04/30 00:49:53;;;;;;;;;;;7.80;94.40;;;;;;5032161;28;20068;-49
2021/04/30 00:52:18;;;;;;;53.15;32.78;;;7.80;94.40;;;;;;4983499;28;19922;-51
2021/04/30 00:54:45;;;;;;;50.55;32.25;;;7.70;94.30;;;;;;5019602;28;20474;-52
2021/04/30 00:57:13;;;;;;;55.10;33.38;;;7.80;94.30;;;;;;5075573;28;20067;-49
2021/04/30 00:59:40;;;;;;;55.10;32.63;;;7.80;94.40;;;;;;4998092;28;20042;-49
2021/04/30 01:02:09;;;;;;;55.63;32.75;;;7.80;94.30;;;;;;4993932;28;20035;-48
2021/04/30 01:04:37;;;;;;;55.45;33.45;;;7.80;94.30;;;;;;4989075;28;20047;-51
2021/04/30 01:07:03;;;;;;;59.42;33.78;;;7.70;94.30;;;;;;4987189;28;20375;-50
2021/04/30 01:09:30;;;;;;;55.28;33.58;;;7.70;94.50;;;;;;4984255;28;20051;-49
2021/04/30 01:11:56;;;;;;;59.00;33.60;;;7.70;94.40;;;;;;4992143;28;20425;-52
2021/04/30 01:14:22;;;;;;;62.70;32.85;;;7.70;94.50;;;;;;4992940;28;20064;-50
2021/04/30 01:16:48;;;;;;;56.38;32.75;;;7.70;94.40;;;;;;4995141;28;20061;-50
2021/04/30 01:19:33;;;;;;;56.03;31.55;;;7.70;94.40;;;;;;4979561;28;20042;-53
2021/04/30 01:22:00;;;;;;;58.85;33.10;;;7.70;94.40;;;;;;4999971;28;20072;-53
2021/04/30 01:24:26;;;;;;;53.70;31.48;;;7.60;94.40;;;;;;4994961;28;20533;-49
2021/04/30 01:26:53;;;;;;;60.88;32.97;;;7.70;94.40;;;;;;5030345;28;20037;-51
2021/04/30 01:29:19;;;;;;;55.95;32.83;;;7.60;94.40;;;;;;5002755;28;20448;-48
2021/04/30 01:31:45;;;;;;;55.40;33.58;;;7.60;94.40;;;;;;4993354;28;20038;-49
2021/04/30 01:34:12;;;;;;;57.75;33.17;;;7.60;94.40;;;;;;4981113;28;20110;-51
2021/04/30 01:36:38;;;;;;;55.30;33.28;;;7.60;94.60;;;;;;4991584;28;20054;-49
2021/04/30 01:39:07;;;;;;;52.33;32.67;;;7.60;94.50;;;;;;4992960;28;20080;-49
2021/04/30 01:41:36;;;;;;;54.83;32.80;;;7.60;94.50;;;;;;4991738;28;20083;-48
2021/04/30 01:44:07;;;;;;;57.35;32.83;;;7.60;94.50;;;;;;4973138;28;20422;-48
2021/04/30 01:46:33;;;;;;;52.08;31.15;;;7.60;94.50;;;;;;4984739;28;20054;-49
2021/04/30 01:48:58;;;;;;;54.65;32.75;;;7.60;94.50;;;;;;4979867;28;20035;-50
2021/04/30 01:51:25;;;;;;;55.38;32.30;;;7.60;94.50;;;;;;4991066;28;20050;-48
2021/04/30 01:53:53;;;;;;;60.15;34.03;;;7.60;94.50;;;;;;4990795;28;20095;-48
2021/04/30 01:56:19;;;;;;;55.72;32.15;;;7.60;94.60;;;;;;4991539;28;20057;-49
2021/04/30 01:58:45;;;;;;;50.20;31.92;;;7.60;94.70;;;;;;4989873;28;20461;-48
2021/04/30 02:01:11;;;;;;;57.05;31.73;;;7.60;94.60;;;;;;4976178;28;20498;-48
2021/04/30 02:03:38;;;;;;;51.53;31.58;;;7.60;94.50;;;;;;4951236;28;20054;-52
2021/04/30 02:06:04;;;;;;;57.90;31.38;;;7.60;94.50;;;;;;4988993;28;20054;-51
2021/04/30 02:08:30;;;;;;;54.33;31.42;;;7.60;94.40;;;;;;5045953;28;20040;-50
2021/04/30 02:10:56;;;;;;;47.55;31.23;;;7.60;94.50;;;;;;4989849;28;20114;-49
2021/04/30 02:13:22;;;;;;;53.35;32.13;;;7.60;94.50;;;;;;4990951;28;20117;-51
2021/04/30 02:15:51;;;;;;;52.97;31.85;;;7.60;94.50;;;;;;4989246;28;20421;-51
2021/04/30 02:18:18;;;;;;;52.13;31.35;;;7.60;94.50;;;;;;4991055;28;20055;-51
2021/04/30 02:20:44;;;;;;;52.05;31.25;;;7.60;94.50;;;;;;4989820;28;20136;-49
2021/04/30 02:23:12;;;;;;;51.53;31.80;;;7.60;94.50;;;;;;4995240;28;20041;-48
2021/04/30 02:25:38;;;;;;;52.45;32.25;;;7.60;94.50;;;;;;4988467;28;20080;-48
2021/04/30 02:28:05;;;;;;;52.67;33.45;;;7.60;94.60;;;;;;5029081;28;20117;-51
2021/04/30 02:30:34;;;;;;;48.75;31.17;;;7.60;94.60;;;;;;5004375;28;20141;-49
2021/04/30 02:33:02;;;;;;;54.65;32.88;;;7.60;94.50;;;;;;4989854;28;20046;-48
2021/04/30 02:35:32;;;;;;;47.67;31.92;;;7.60;94.60;;;;;;4972382;28;20061;-57
2021/04/30 02:37:59;;;;;;;53.22;31.13;;;7.60;94.60;;;;;;4987400;28;20133;-50
2021/04/30 02:40:26;;;;;;;53.55;32.63;;;7.60;94.60;;;;;;4986656;28;20610;-50
2021/04/30 02:42:55;;;;;;;48.53;30.65;;;7.50;94.50;;;;;;4980028;28;20045;-52
2021/04/30 02:45:22;;;;;;;53.17;32.17;;;7.50;94.60;;;;;;4989317;28;20058;-50
2021/04/30 02:47:49;;;;;;;49.38;31.48;;;7.50;94.60;;;;;;4988936;28;20054;-50
2021/04/30 02:50:18;;;;;;;51.42;31.45;;;7.50;94.60;;;;;;4983935;28;20377;-53
2021/04/30 02:52:45;;;;;;;48.50;31.73;;;7.50;94.60;;;;;;4968545;28;20066;-51
2021/04/30 02:55:13;;;;;;;49.40;30.70;;;7.50;94.60;;;;;;4984623;28;20185;-50
2021/04/30 02:57:39;;;;;;;46.28;30.27;;;7.40;94.60;;;;;;4981529;28;20450;-51
2021/04/30 03:00:07;;;;;;;34.67;24.90;;;7.40;94.70;;;;;;4981786;28;20348;-51
2021/04/30 03:02:33;;;;;;;36.05;25.08;;;7.40;94.60;;;;;;4988976;28;20118;-50
2021/04/30 03:05:00;;;;;;;37.58;25.23;;;7.40;94.50;;;;;;4987271;28;20112;-51
2021/04/30 03:07:26;;;;;;;37.90;24.85;;;7.40;94.40;;;;;;4976968;28;20449;-52
2021/04/30 03:09:54;;;;;;;39.30;25.08;;;7.30;94.30;;;;;;4971975;28;20046;-51
2021/04/30 03:12:19;;;;;;;41.83;26.90;;;7.30;94.30;;;;;;4987332;28;20114;-50
2021/04/30 03:14:45;;;;;;;39.08;26.95;;;7.30;94.40;;;;;;4987750;28;20138;-51
2021/04/30 03:17:11;;;;;;;44.13;30.13;;;7.20;94.40;;;;;;4974197;28;20034;-52
2021/04/30 03:19:38;;;;;;;47.63;30.02;;;7.30;94.50;;;;;;4987914;28;20049;-52
2021/04/30 03:22:05;;;;;;;45.65;28.75;;;7.30;94.50;;;;;;4975671;28;20050;-50
2021/04/30 03:24:30;;;;;;;45.60;29.70;;;7.30;94.60;;;;;;4989226;28;20108;-50
2021/04/30 03:26:56;;;;;;;43.53;29.52;;;7.30;94.60;;;;;;5019041;28;20089;-53
2021/04/30 03:29:24;;;;;;;44.70;29.75;;;7.30;94.60;;;;;;4987273;28;20047;-52
2021/04/30 03:31:50;;;;;;;41.53;28.05;;;7.30;94.60;;;;;;5014309;28;20057;-50
2021/04/30 03:34:16;;;;;;;44.05;27.70;;;7.30;94.60;;;;;;4977571;28;20153;-53
2021/04/30 03:36:43;;;;;;;42.53;29.52;;;7.30;94.60;;;;;;4988557;28;20114;-52
2021/04/30 03:39:09;;;;;;;42.40;28.73;;;7.30;94.60;;;;;;5005575;28;20089;-49
2021/04/30 03:41:35;;;;;;;40.15;27.70;;;7.30;94.60;;;;;;5026040;28;20031;-53
2021/04/30 03:44:01;;;;;;;39.15;27.10;;;7.30;94.50;;;;;;4989112;28;20179;-50
2021/04/30 03:46:27;;;;;;;43.90;28.10;;;7.30;94.40;;;;;;5024631;28;20048;-54
2021/04/30 03:48:53;;;;;;;47.80;28.77;;;7.40;94.60;;;;;;5008052;28;20042;-52
2021/04/30 03:51:19;;;;;;;43.20;28.05;;;7.40;94.60;;;;;;4976340;28;20525;-51
2021/04/30 03:53:46;;;;;;;43.55;29.08;;;7.30;94.70;;;;;;4989655;28;20119;-48
2021/04/30 03:56:19;;;;;;;41.88;29.15;;;7.30;94.70;;;;;;4987527;28;20038;-52
2021/04/30 03:58:46;;;;;;;53.90;31.38;;;7.40;94.60;;;;;;4987624;28;20562;-53
2021/04/30 04:01:13;;;;;;;49.63;29.83;;;7.30;94.80;;;;;;4985579;28;20039;-51
2021/04/30 04:03:44;;;;;;;52.10;31.55;;;7.40;94.50;;;;;;4996470;28;20053;-52
2021/04/30 04:06:11;;;;;;;50.75;32.35;;;7.30;94.50;;;;;;5020177;28;20491;-52
2021/04/30 04:08:37;;;;;;;45.35;30.88;;;7.30;94.50;;;;;;4987171;28;20053;-52
2021/04/30 04:11:03;;;;;;;53.17;30.48;;;7.30;94.60;;;;;;4992550;28;20579;-49
2021/04/30 04:13:29;;;;;;;47.90;30.17;;;7.30;94.60;;;;;;4991542;28;20468;-51
2021/04/30 04:15:57;;;;;;;48.50;29.30;;;7.30;94.60;;;;;;4990604;28;20057;-48
2021/04/30 04:18:25;;;;;;;45.38;29.95;;;7.30;94.50;;;;;;4984105;28;20142;-51
2021/04/30 04:20:52;;;;;;;55.05;31.25;;;7.30;94.60;;;;;;4991193;28;20042;-52
2021/04/30 04:23:18;;;;;;;50.28;30.35;;;7.30;94.70;;;;;;4992448;28;20048;-48
2021/04/30 04:25:44;;;;;;;42.92;28.10;;;7.30;94.70;;;;;;4992236;28;20089;-52
2021/04/30 04:28:10;;;;;;;40.97;26.95;;;7.30;94.70;;;;;;4991766;28;20080;-51
2021/04/30 04:30:39;;;;;;;40.65;28.17;;;7.40;94.70;;;;;;4992594;28;20038;-53
2021/04/30 04:33:05;;;;;;;46.60;28.65;;;7.30;94.60;;;;;;4992489;28;20066;-53
2021/04/30 04:35:37;;;;;;;45.33;28.42;;;7.30;94.50;;;;;;4977517;28;20049;-53
2021/04/30 04:38:04;;;;;;;41.17;28.63;;;7.30;94.50;;;;;;5034565;28;20530;-52
2021/04/30 04:40:32;;;;;;;44.08;29.45;;;7.30;94.60;;;;;;5001649;28;20045;-49
2021/04/30 04:42:58;;;;;;;50.60;29.92;;;7.30;94.60;;;;;;4983111;28;20047;-51
2021/04/30 04:45:29;;;;;;;43.78;28.85;;;7.30;94.50;;;;;;4972670;28;20481;-50
2021/04/30 04:47:55;;;;;;;46.13;31.50;;;7.30;94.60;;;;;;4990504;28;20163;-53
2021/04/30 04:50:23;;;;;;;49.20;29.08;;;7.30;94.60;;;;;;4991513;28;20042;-53
2021/04/30 04:52:49;;;;;;;48.85;30.38;;;7.40;94.60;;;;;;4991997;28;20117;-53
2021/04/30 04:55:17;;;;;;;45.60;29.55;;;7.40;94.60;;;;;;4992351;28;20096;-53
2021/04/30 04:57:44;;;;;;;47.10;28.38;;;7.40;94.60;;;;;;4981064;28;20460;-50
2021/04/30 05:00:11;;;;;;;48.10;29.33;;;7.40;94.60;;;;;;4989141;28;20077;-52
2021/04/30 05:02:38;;;;;;;40.80;27.77;;;7.40;94.70;;;;;;4973734;28;20134;-53
2021/04/30 05:05:05;;;;;;;47.13;29.98;;;7.40;94.80;;;;;;4991486;28;20043;-53
2021/04/30 05:07:30;;;;;;;45.35;29.80;;;7.40;94.80;;;;;;4991032;28;20046;-49
2021/04/30 05:09:56;;;;;;;45.75;29.15;;;7.50;94.90;;;;;;5006734;28;20041;-52
2021/04/30 05:12:22;;;;;;;45.85;28.85;;;7.50;94.80;;;;;;5029983;28;20051;-51
2021/04/30 05:14:48;;;;;;;50.90;31.05;;;7.50;94.60;;;;;;4981194;28;20544;-49
2021/04/30 05:17:15;;;;;;;53.92;32.60;;;7.50;94.60;;;;;;4988629;28;20034;-50
2021/04/30 05:19:41;;;;;;;48.80;32.35;;;7.50;94.90;;;;;;4991358;28;20467;-52
2021/04/30 05:22:10;;;;;;;55.55;32.90;;;7.50;94.80;;;;;;4989825;28;20035;-52
2021/04/30 05:24:37;;;;;;;49.78;31.27;;;7.50;94.80;;;;;;4984781;28;20081;-52
2021/04/30 05:27:07;;;;;;;51.63;32.53;;;7.50;94.70;;;;;;4990539;28;20038;-50
2021/04/30 05:29:33;;;;;;;49.15;32.30;;;7.50;94.70;;;;;;5030395;28;20065;-51
2021/04/30 05:32:00;;;;;;;51.45;33.08;;;7.60;94.70;;;;;;5052299;28;20044;-50
2021/04/30 05:34:28;;;;;;;55.80;32.25;;;7.60;94.90;;;;;;4990779;28;20042;-52
2021/04/30 05:36:56;;;;;;;50.17;32.03;;;7.60;94.70;;;;;;4978457;28;20522;-48
2021/04/30 05:39:22;;;;;;;52.47;34.10;;;7.60;94.80;;;;;;4996624;28;20381;-51
2021/04/30 05:41:47;;;;;;;53.13;32.45;;;7.70;94.80;;;;;;4990560;28;20049;-51
2021/04/30 05:44:13;;;;;;;48.25;31.35;;;7.70;94.80;;;;;;5023467;28;20043;-53
2021/04/30 05:46:40;;;;;;;46.63;32.38;;;7.70;94.90;;;;;;5003159;28;20046;-51
2021/04/30 05:49:06;;;;;;;47.53;33.00;;;7.70;94.90;;;;;;4990617;28;20068;-54
2021/04/30 05:51:32;;;;;;;47.50;31.23;;;7.70;94.80;;;;;;4984574;28;20513;-53
2021/04/30 05:53:57;;;;;;;47.70;30.35;;;7.80;94.80;;;;;;4983093;28;20038;-48
2021/04/30 05:56:23;;;;;;;52.15;33.42;;;7.80;94.80;;;;;;4974386;28;20034;-50
2021/04/30 05:58:49;;;;;;;50.33;32.60;;;7.80;94.60;;;;;;4978780;28;20081;-52
2021/04/30 06:01:16;;;;;;;48.70;32.33;;;7.80;94.60;;;;;;4956124;28;20483;-52
2021/04/30 06:03:42;;;;;;;51.20;31.10;;;7.90;94.60;;;;;;5026156;28;20041;-51
2021/04/30 06:06:08;;;;;;;48.50;29.83;;;7.90;94.70;;;;;;5009540;28;20114;-52
2021/04/30 06:08:36;;;;;;;43.70;29.63;;;7.90;94.70;;;;;;4989946;28;20100;-53
2021/04/30 06:11:05;;;;;;;48.17;27.65;;;7.90;94.60;;;;;;4990511;28;20078;-53
2021/04/30 06:13:32;;;;;;;45.72;29.33;;;7.90;94.60;;;;;;4988994;28;20497;-52
2021/04/30 06:15:58;;;;;;;50.83;29.95;;;7.90;94.60;;;;;;4989418;28;20054;-50
2021/04/30 06:18:24;;;;;;;50.88;29.35;;;8.00;94.50;;;;;;4988550;28;20109;-51
2021/04/30 06:20:55;;;;;;;50.25;28.80;;;7.90;94.50;;;;;;4985055;28;20043;-52
2021/04/30 06:23:20;;;;;;;44.95;27.23;;;8.00;94.40;;;;;;4989876;28;20054;-53
2021/04/30 06:25:47;;;;;;;47.40;28.63;;;8.00;94.60;;;;;;4988581;28;20659;-52
2021/04/30 06:28:12;;;;;;;47.13;28.50;;;8.00;94.60;;;;;;4988830;28;20565;-50
2021/04/30 06:30:38;;;;;;;51.60;29.80;;;8.00;94.50;;;;;;4988777;28;20059;-51
2021/04/30 06:33:08;;;;;;;47.80;29.10;;;8.00;94.60;;;;;;4975879;28;20054;-54
2021/04/30 06:35:34;;;;;;;45.10;28.55;;;8.10;94.60;;;;;;4981501;28;20505;-54
2021/04/30 06:38:00;;;;;;;52.13;28.90;;;8.10;94.70;;;;;;4988807;28;20121;-52
2021/04/30 06:40:27;;;;;;;47.22;27.60;;;8.10;94.70;;;;;;5002020;28;20033;-52
2021/04/30 06:42:52;;;;;;;46.50;28.35;;;8.20;94.70;;;;;;5034237;28;20102;-53
2021/04/30 06:45:18;;;;;;;47.60;27.40;;;8.20;94.70;;;;;;4988331;28;20050;-54
2021/04/30 06:47:44;;;;;;;41.47;27.05;;;8.20;94.70;;;;;;4977058;28;20456;-52
2021/04/30 06:50:10;;;;;;;45.42;28.40;;;8.30;94.50;;;;;;4990499;28;20050;-51
2021/04/30 06:52:38;;;;;;;50.05;27.92;;;8.30;94.50;;;;;;4989773;28;20087;-50
2021/04/30 06:55:04;;;;;;;44.80;28.10;;;8.30;94.60;;;;;;5036954;28;20048;-52
2021/04/30 06:57:31;;;;;;;44.00;26.88;;;8.40;94.50;;;;;;5015616;28;20104;-52
2021/04/30 06:59:57;;;;;;;49.67;28.80;;;8.40;94.60;;;;;;5035604;28;20039;-53
2021/04/30 07:02:23;;;;;;;47.20;27.67;;;8.50;94.60;;;;;;4991555;28;20134;-53
2021/04/30 07:04:49;;;;;;;48.33;27.70;;;8.50;94.50;;;;;;4993287;28;20038;-53
2021/04/30 07:07:15;;;;;;;46.78;28.27;;;8.50;94.70;;;;;;4994144;28;20409;-53
2021/04/30 07:09:41;;;;;;;52.92;30.27;;;8.60;94.40;;;;;;4995127;28;20452;-53
2021/04/30 07:12:08;;;;;;;49.97;29.33;;;8.50;94.40;;;;;;4992702;28;20042;-54
2021/04/30 07:14:34;;;;;;;53.38;29.13;;;8.60;94.50;;;;;;4991561;28;20034;-54
2021/04/30 07:17:01;;;;;;;47.65;26.75;;;8.70;94.50;;;;;;4990235;28;20039;-49
2021/04/30 07:19:27;;;;;;;44.85;26.30;;;8.70;94.30;;;;;;4992855;28;20042;-52
2021/04/30 07:21:53;;;;;;;39.53;25.60;;;8.80;94.20;;;;;;5012299;28;20032;-51
2021/04/30 07:24:19;;;;;;;46.17;27.65;;;8.80;93.90;;;;;;5016888;28;20041;-51
2021/04/30 07:26:45;;;;;;;43.80;26.35;;;8.80;93.90;;;;;;4981216;28;20077;-52
2021/04/30 07:29:11;;;;;;;42.63;26.05;;;8.80;94.10;;;;;;4992863;28;20413;-52
2021/04/30 07:31:37;;;;;;;39.20;24.50;;;8.80;93.90;;;;;;4991818;28;20042;-49
2021/04/30 07:34:03;;;;;;;46.63;25.85;;;8.90;93.90;;;;;;4990017;28;20085;-50
2021/04/30 07:36:29;;;;;;;44.17;25.08;;;8.90;93.80;;;;;;4987602;28;20391;-50
2021/04/30 07:38:57;;;;;;;43.83;25.02;;;8.90;93.80;;;;;;4999355;28;20103;-53
2021/04/30 07:41:22;;;;;;;48.38;26.25;;;8.90;93.70;;;;;;4997065;28;20439;-51
2021/04/30 07:43:49;;;;;;;39.05;25.10;;;8.90;93.70;;;;;;4996536;28;20091;-52
2021/04/30 07:46:14;;;;;;;43.88;25.20;;;9.10;93.80;;;;;;4996788;28;20071;-53
2021/04/30 07:48:40;;;;;;;44.42;25.58;;;9.10;93.60;;;;;;4988804;28;20047;-52
2021/04/30 07:51:06;;;;;;;33.95;21.40;;;9.10;93.50;;;;;;4983456;28;20043;-50
2021/04/30 07:53:34;;;;;;;46.10;23.42;;;9.20;92.70;;;;;;4993506;28;20498;-54
2021/04/30 07:56:01;;;;;;;38.38;22.80;;;9.20;92.60;;;;;;4997476;28;20449;-54
2021/04/30 07:58:28;;;;;;;40.10;22.52;;;9.20;92.60;;;;;;4994776;28;20049;-52
2021/04/30 08:00:58;;;;;;;33.88;23.17;;;9.20;92.70;;;;;;4996784;28;20030;-53
2021/04/30 08:03:24;;;;;;;36.20;22.90;;;9.20;92.80;;;;;;4996356;28;20072;-52
2021/04/30 08:05:51;;;;;;;38.47;24.30;;;9.20;92.80;;;;;;4995035;28;20042;-54
2021/04/30 08:08:17;;;;;;;32.50;20.73;;;9.20;93.00;;;;;;4993972;28;20050;-50
2021/04/30 08:10:44;;;;;;;33.70;22.17;;;9.30;92.80;;;;;;4994734;28;20081;-53
2021/04/30 08:13:10;;;;;;;40.15;24.30;;;9.30;92.20;;;;;;4997067;28;20043;-53
2021/04/30 08:15:52;;;;;;;40.47;22.88;;;9.30;92.40;;;;;;4998595;28;20049;-51
2021/04/30 08:18:18;;;;;;;37.42;22.05;;;9.40;92.70;;;;;;4997727;28;20054;-53
2021/04/30 08:20:45;;;;;;;38.25;21.83;;;9.40;92.30;;;;;;4998077;28;20094;-51
2021/04/30 08:23:12;;;;;;;33.20;20.73;;;9.40;92.30;;;;;;5027488;28;20077;-50
2021/04/30 08:25:39;;;;;;;38.58;23.17;;;9.40;92.30;;;;;;4998513;28;20058;-51
2021/04/30 08:28:05;;;;;;;43.20;22.50;;;9.40;92.30;;;;;;5007321;28;20460;-51
2021/04/30 08:30:31;;;;;;;39.70;22.08;;;9.40;92.30;;;;;;4991284;28;20039;-52
2021/04/30 08:32:56;;;;;;;32.50;20.50;;;9.40;92.10;;;;;;4992352;28;20534;-53
2021/04/30 08:35:22;;;;;;;34.53;19.83;;;9.50;92.00;;;;;;4995893;28;20513;-51
2021/04/30 08:37:48;;;;;;;34.72;19.15;;;9.50;91.50;;;;;;4986354;28;20043;-53
2021/04/30 08:40:15;;;;;;;30.73;20.65;;;9.50;91.60;;;;;;5019136;28;20047;-53
2021/04/30 08:42:41;;;;;;;35.17;21.15;;;9.50;91.50;;;;;;4976369;28;20061;-54
2021/04/30 08:45:13;;;;;;;33.20;20.92;;;9.50;91.80;;;;;;4976481;28;20054;-54
2021/04/30 08:47:39;;;;;;;34.00;23.13;;;9.50;91.70;;;;;;4992558;28;20043;-52
2021/04/30 08:50:06;;;;;;;34.58;23.08;;;9.50;92.00;;;;;;4997005;28;20392;-52
2021/04/30 08:52:32;;;;;;;34.15;21.02;;;9.60;92.10;;;;;;4998076;28;20456;-53
2021/04/30 08:55:04;;;;;;;32.63;20.13;;;9.60;92.00;;;;;;4996061;28;20133;-53
2021/04/30 08:57:31;;;;;;;33.47;20.55;;;9.60;91.90;;;;;;4985401;28;20051;-53
2021/04/30 09:00:00;;;;;;;34.10;19.83;;;9.60;91.60;;;;;;4997874;28;20046;-51
2021/04/30 09:02:33;;;;;;;31.63;19.25;;;9.70;91.60;;;;;;4990347;28;20081;-54
2021/04/30 09:04:59;;;;;;;33.20;20.77;;;9.70;91.60;;;;;;4991308;28;20050;-51
2021/04/30 09:07:25;;;;;;;30.02;19.52;;;9.70;91.60;;;;;;4988108;28;20664;-53
2021/04/30 09:09:58;;;;;;;31.48;20.55;;;9.70;91.40;;;;;;4989820;28;20494;-54
2021/04/30 09:12:24;;;;;;;35.97;21.98;;;9.80;91.40;;;;;;4988820;28;20073;-50
2021/04/30 09:14:50;;;;;;;27.90;20.42;;;9.80;91.60;;;;;;5045356;28;20048;-50
2021/04/30 09:17:17;;;;;;;32.30;21.80;;;9.90;91.70;;;;;;4992388;28;20042;-50
2021/04/30 09:19:58;;;;;;;26.02;19.77;;;9.90;91.70;;;;;;4990488;28;20430;-51
2021/04/30 09:22:31;;;;;;;32.33;19.33;;;10.00;91.50;;;;;;4976919;28;20042;-51
2021/04/30 09:25:05;;;;;;;29.52;19.63;;;10.00;91.20;;;;;;4990528;28;20038;-51
2021/04/30 09:27:39;;;;;;;25.98;17.05;;;10.10;91.10;;;;;;5047181;28;20095;-53
2021/04/30 09:30:22;;;;;;;25.65;16.75;;;10.10;90.80;;;;;;4990123;28;20113;-50
2021/04/30 09:33:04;;;;;;;31.67;19.73;;;10.20;90.40;;;;;;5019136;28;20040;-52
2021/04/30 09:35:30;;;;;;;34.72;19.60;;;10.30;90.60;;;;;;4981872;28;20163;-52
2021/04/30 09:37:57;;;;;;;34.78;20.77;;;10.30;90.60;;;;;;5003301;28;20080;-51
2021/04/30 09:40:30;;;;;;;30.95;20.02;;;10.50;90.70;;;;;;4993973;28;20042;-49
2021/04/30 09:43:11;;;;;;;30.15;20.58;;;10.60;90.60;;;;;;4977566;28;20111;-49
2021/04/30 09:45:38;;;;;;;35.97;20.40;;;10.80;90.50;;;;;;4980187;28;20047;-50
2021/04/30 09:48:05;;;;;;;31.75;21.70;;;10.80;90.40;;;;;;4991765;28;20057;-49
2021/04/30 09:50:33;;;;;;;29.70;20.73;;;10.90;90.50;;;;;;4990415;28;20030;-50
2021/04/30 09:53:17;;;;;;;30.27;18.95;;;10.90;90.50;;;;;;4994439;28;20042;-53
2021/04/30 09:55:52;;;;;;;34.65;20.17;;;11.10;90.40;;;;;;5014179;28;20044;-49
2021/04/30 09:58:19;;;;;;;31.95;20.05;;;11.20;90.00;;;;;;5019695;28;20124;-49
2021/04/30 10:00:53;;;;;;;30.80;19.63;;;11.20;90.10;;;;;;4992579;28;20054;-51
2021/04/30 10:03:26;;;;;;;29.60;18.60;;;11.20;88.90;;;;;;5040672;28;20515;-49
2021/04/30 10:06:02;;;;;;;30.00;19.13;;;11.10;88.50;;;;;;5052879;28;20061;-52
2021/04/30 10:08:29;;;;;;;25.08;18.80;;;11.10;88.70;;;;;;4992421;28;20050;-53
2021/04/30 10:10:55;;;;;;;33.72;21.85;;;11.10;88.80;;;;;;5049002;28;20405;-51
2021/04/30 10:13:25;;;;;;;29.35;19.25;;;11.10;89.90;;;;;;4990831;28;20034;-52
2021/04/30 10:15:51;;;;;;;31.85;18.98;;;11.10;89.20;;;;;;4996212;28;20073;-52
2021/04/30 10:18:18;;;;;;;28.55;18.38;;;11.10;89.10;;;;;;4986818;28;20069;-53
2021/04/30 10:20:45;;;;;;;30.30;19.10;;;11.10;89.00;;;;;;4982003;28;20043;-51
2021/04/30 10:23:17;;;;;;;30.08;18.92;;;11.10;88.60;;;;;;4989334;28;20074;-53
2021/04/30 10:25:46;;;;;;;33.40;18.30;;;11.10;88.50;;;;;;4989188;28;20517;-50
2021/04/30 10:28:14;;;;;;;32.47;19.02;;;11.10;88.40;;;;;;4988840;28;20092;-50
2021/04/30 10:30:46;;;;;;;27.60;18.13;;;11.10;87.90;;;;;;4975737;28;20070;-51
2021/04/30 10:33:38;;;;;;;24.75;17.20;;;11.10;87.70;;;;;;5002957;28;20036;-50
2021/04/30 10:36:21;;;;;;;23.83;17.33;;;11.10;87.10;;;;;;5005260;28;20042;-52
2021/04/30 10:38:53;;;;;;;25.85;17.35;;;11.20;87.30;;;;;;4979063;28;20051;-51
2021/04/30 10:41:39;;;;;;;29.77;17.25;;;11.20;87.10;;;;;;4979860;28;20491;-50
2021/04/30 10:44:39;;;;;;;29.65;18.42;;;11.30;83.10;;;;;;4982153;28;20052;-54
2021/04/30 10:47:04;;;;;;;28.77;17.67;;;11.20;84.30;;;;;;4979330;28;20046;-52
2021/04/30 10:49:30;;;;;;;28.95;19.55;;;11.20;85.60;;;;;;4978046;28;20125;-51
2021/04/30 10:52:24;;;;;;;29.40;18.42;;;11.20;86.50;;;;;;4968474;28;20066;-54
2021/04/30 10:55:04;;;;;;;26.60;18.00;;;11.30;86.90;;;;;;4984231;28;20110;-52
2021/04/30 10:58:00;;;;;;;30.77;17.88;;;11.30;86.60;;;;;;4985109;28;20073;-51
2021/04/30 11:00:35;;;;;;;27.30;17.45;;;11.30;86.50;;;;;;4988843;28;20043;-54
2021/04/30 11:03:24;;;;;;;23.55;17.27;;;11.30;86.80;;;;;;4979190;28;20559;-51
2021/04/30 11:06:04;;;;;;;23.10;16.98;;;11.30;86.50;;;;;;5000267;28;20042;-54
2021/04/30 11:08:47;;;;;;;26.05;17.23;;;11.30;86.50;;;;;;4980820;28;20047;-52
2021/04/30 11:11:12;;;;;;;29.75;17.50;;;11.30;86.30;;;;;;4987607;28;20528;-50
2021/04/30 11:13:38;;;;;;;24.13;16.50;;;11.30;86.20;;;;;;4987301;28;20133;-52
2021/04/30 11:16:04;;;;;;;27.80;17.52;;;11.40;85.70;;;;;;5025014;28;20050;-51
2021/04/30 11:18:50;;;;;;;27.73;16.67;;;11.40;85.80;;;;;;5007734;28;20042;-51
2021/04/30 11:21:18;;;;;;;29.23;17.02;;;11.40;85.90;;;;;;4979175;28;20058;-52
2021/04/30 11:23:52;;;;;;;25.00;16.83;;;11.40;85.10;;;;;;4988704;28;20046;-52
2021/04/30 11:26:18;;;;;;;23.63;17.05;;;11.40;85.10;;;;;;4987104;28;20042;-50
2021/04/30 11:28:44;;;;;;;26.48;17.08;;;11.40;84.80;;;;;;4987740;28;20132;-51
2021/04/30 11:31:11;;;;;;;27.45;17.75;;;11.40;84.80;;;;;;5012373;28;20111;-53
2021/04/30 11:34:07;;;;;;;24.63;16.55;;;11.50;84.70;;;;;;5017911;28;20043;-51
2021/04/30 11:36:33;;;;;;;24.92;15.48;;;11.40;82.40;;;;;;4979657;28;20490;-54
2021/04/30 11:39:20;;;;;;;25.67;17.00;;;11.40;84.40;;;;;;4988636;28;20123;-51
2021/04/30 11:41:48;;;;;;;23.33;16.42;;;11.50;83.70;;;;;;4977284;28;20138;-51
2021/04/30 11:44:18;;;;;;;24.48;17.02;;;11.40;84.50;;;;;;4988265;28;20035;-50
2021/04/30 11:46:44;;;;;;;28.70;18.08;;;11.40;84.60;;;;;;4987776;28;20046;-51
2021/04/30 11:49:19;;;;;;;30.67;19.08;;;11.40;85.30;;;;;;4980519;28;20045;-50
2021/04/30 11:51:47;;;;;;;25.40;19.17;;;11.30;85.30;;;;;;4982863;28;20201;-52
2021/04/30 11:54:25;;;;;;;23.38;18.05;;;11.20;86.20;;;;;;4985997;28;20038;-50
2021/04/30 11:57:01;;;;;;;25.13;18.83;;;11.10;84.90;;;;;;4986849;28;20057;-49
2021/04/30 11:59:27;;;;;;;32.38;20.75;;;10.90;86.70;;;;;;4975270;28;20387;-51
2021/04/30 12:02:00;;;;;;;31.52;21.48;;;10.80;87.20;;;;;;4988555;28;20113;-50
2021/04/30 12:04:43;;;;;;;36.78;22.88;;;10.80;87.60;;;;;;4987878;28;20034;-50
2021/04/30 12:07:12;;;;;;;38.25;25.13;;;10.70;89.70;;;;;;4987071;28;20053;-53
2021/04/30 12:09:38;;;;;;;35.33;21.65;;;10.70;90.50;;;;;;4970627;28;20078;-50
2021/04/30 12:12:13;;;;;;;30.25;21.50;;;10.70;90.20;;;;;;4976434;28;20074;-50
2021/04/30 12:15:03;;;;;;;33.13;21.90;;;10.60;88.80;;;;;;4986414;28;20175;-50
2021/04/30 12:17:37;;;;;;;41.03;25.15;;;10.50;90.00;;;;;;4981564;28;20054;-53
2021/04/30 12:20:08;;;;;;;37.20;22.10;;;10.40;90.50;;;;;;4987755;28;20041;-50
2021/04/30 12:22:42;;;;;;;33.33;23.08;;;10.20;90.40;;;;;;4987245;28;20429;-50
2021/04/30 12:25:33;;;;;;;32.20;22.58;;;10.20;90.80;;;;;;4990358;28;20493;-52
2021/04/30 12:28:29;;;;;;;28.92;21.58;;;10.10;90.90;;;;;;4988945;28;20149;-54
2021/04/30 12:30:55;;;;;;;30.58;22.75;;;10.10;90.70;;;;;;4982317;28;20050;-53
2021/04/30 12:33:35;;;;;;;33.88;25.63;;;10.20;91.10;;;;;;4988822;28;20047;-52
2021/04/30 12:36:08;;;;;;;30.90;22.90;;;10.30;91.50;;;;;;4991075;28;20475;-53
2021/04/30 12:38:35;;;;;;;28.50;18.98;;;10.50;92.00;;;;;;4990521;28;20034;-52
2021/04/30 12:41:08;;;;;;;25.13;20.45;;;10.70;89.40;;;;;;4986893;28;20126;-53
2021/04/30 12:43:35;;;;;;;24.08;18.77;;;10.90;87.80;;;;;;4991185;28;20158;-54